Time;durP1;ratioP1;P1;durP2;ratioP2;P2;SDS_P1;SDS_P2;PMS_P1;PMS_P2;Temp;Humidity;BMP_temperature;BMP_pressure;BME280_temperature;BME280_humidity;BME280_pressure;Samples;Min_cycle;Max_cycle;Signal;HPM_P1;HPM_P2
2022/06/19 00:08:42;;;;;;;13.40;4.37;;;24.00;69.50;;;;;;20999513;28;20609;-70
2022/06/19 00:18:45;;;;;;;13.50;4.33;;;23.80;71.60;;;;;;20998874;28;20207;-75
2022/06/19 00:28:47;;;;;;;18.23;4.90;;;23.70;72.90;;;;;;20997887;28;20231;-78
2022/06/19 00:38:48;;;;;;;15.17;4.40;;;23.60;73.50;;;;;;20996738;28;20221;-78
2022/06/19 00:48:51;;;;;;;19.47;4.20;;;23.50;73.70;;;;;;20997511;28;20574;-76
2022/06/19 00:58:53;;;;;;;16.70;4.97;;;23.40;73.90;;;;;;20978364;28;20215;-80
2022/06/19 01:08:56;;;;;;;14.53;4.20;;;23.30;74.10;;;;;;20995239;28;20234;-71
2022/06/19 01:18:59;;;;;;;18.43;4.60;;;23.20;74.00;;;;;;20995561;28;20204;-69
2022/06/19 01:29:02;;;;;;;14.43;4.00;;;23.10;74.60;;;;;;20993532;28;20298;-70
2022/06/19 01:39:04;;;;;;;19.03;4.60;;;23.00;76.10;;;;;;20994743;28;20600;-62
2022/06/19 01:49:06;;;;;;;15.67;4.40;;;22.80;78.10;;;;;;21005530;28;20247;-64
2022/06/19 01:59:10;;;;;;;14.40;4.80;;;22.60;79.50;;;;;;21009768;28;20211;-64
2022/06/19 02:09:16;;;;;;;11.33;3.87;;;22.40;80.70;;;;;;21033932;28;20322;-61
2022/06/19 02:19:19;;;;;;;14.83;4.63;;;22.20;80.70;;;;;;21018400;28;20294;-65
2022/06/19 02:29:21;;;;;;;14.40;4.30;;;22.10;81.60;;;;;;21008755;28;20243;-59
2022/06/19 02:39:29;;;;;;;11.60;4.13;;;22.10;82.00;;;;;;21006543;28;20239;-61
2022/06/19 02:49:31;;;;;;;14.13;5.00;;;22.00;82.60;;;;;;21006955;28;20234;-77
2022/06/19 02:59:33;;;;;;;18.07;4.90;;;21.90;83.20;;;;;;21004002;28;20257;-77
2022/06/19 03:09:35;;;;;;;14.70;4.37;;;21.70;83.80;;;;;;21004356;28;20601;-64
2022/06/19 03:19:37;;;;;;;16.23;4.77;;;21.60;84.40;;;;;;21005287;28;20214;-69
2022/06/19 03:29:39;;;;;;;13.20;4.43;;;21.60;84.90;;;;;;21003168;28;20239;-67
2022/06/19 03:39:40;;;;;;;14.80;4.17;;;21.50;84.70;;;;;;21001707;28;20289;-66
2022/06/19 03:49:42;;;;;;;16.40;4.40;;;21.40;85.70;;;;;;21001340;28;20234;-64
2022/06/19 03:59:44;;;;;;;15.67;4.40;;;21.40;86.90;;;;;;21000173;28;20226;-64
2022/06/19 04:09:46;;;;;;;13.47;4.10;;;21.40;86.30;;;;;;20998705;28;20277;-66
2022/06/19 04:19:48;;;;;;;15.93;4.67;;;21.40;86.70;;;;;;20998749;28;20622;-71
2022/06/19 04:29:50;;;;;;;15.67;4.03;;;21.30;86.90;;;;;;21002817;28;20629;-68
2022/06/19 04:39:52;;;;;;;14.67;4.23;;;21.30;86.90;;;;;;20998033;28;20227;-68
2022/06/19 04:49:53;;;;;;;15.30;4.63;;;21.50;86.90;;;;;;20996966;28;20234;-63
2022/06/19 04:59:56;;;;;;;12.63;4.70;;;21.70;86.10;;;;;;20995811;28;20257;-62
2022/06/19 05:09:58;;;;;;;24.17;4.93;;;21.80;85.30;;;;;;20995700;28;20686;-65
2022/06/19 05:19:59;;;;;;;11.53;4.23;;;22.00;84.40;;;;;;20993861;28;20331;-79
2022/06/19 05:30:02;;;;;;;18.63;4.93;;;22.30;83.60;;;;;;20993858;28;20235;-76
2022/06/19 05:40:05;;;;;;;16.43;4.93;;;22.30;83.50;;;;;;20994569;28;20235;-68
2022/06/19 05:50:07;;;;;;;11.67;3.97;;;22.40;83.50;;;;;;20993925;28;20230;-68
2022/06/19 06:00:09;;;;;;;15.93;5.67;;;22.60;83.00;;;;;;20993405;28;20203;-66
2022/06/19 06:10:11;;;;;;;20.30;6.37;;;22.90;82.10;;;;;;20992677;28;20231;-66
2022/06/19 06:20:13;;;;;;;13.37;4.20;;;23.10;81.30;;;;;;20992814;28;20207;-72
2022/06/19 06:30:14;;;;;;;14.67;4.07;;;23.50;80.10;;;;;;20995283;28;20231;-74
2022/06/19 06:40:16;;;;;;;10.57;4.00;;;23.80;78.50;;;;;;21006441;28;20231;-70
2022/06/19 06:50:18;;;;;;;18.40;4.20;;;24.20;77.10;;;;;;20998692;28;20228;-68
2022/06/19 07:00:22;;;;;;;10.77;3.90;;;24.50;75.90;;;;;;20921789;28;20204;-71
2022/06/19 07:10:25;;;;;;;12.93;3.70;;;24.80;75.20;;;;;;20923562;28;20331;-71
2022/06/19 07:20:27;;;;;;;13.83;3.40;;;25.00;74.50;;;;;;20923018;28;20208;-65
2022/06/19 07:30:29;;;;;;;16.13;3.70;;;25.20;73.90;;;;;;20936963;28;20262;-70
2022/06/19 07:40:31;;;;;;;15.57;3.70;;;25.50;73.10;;;;;;20948602;28;20278;-68
2022/06/19 07:50:33;;;;;;;13.50;3.77;;;25.80;72.10;;;;;;20983393;28;20238;-68
2022/06/19 08:00:37;;;;;;;13.47;3.60;;;26.10;71.50;;;;;;20999522;28;20232;-68
2022/06/19 08:10:42;;;;;;;11.07;4.43;;;26.50;69.50;;;;;;20997069;28;20231;-67
2022/06/19 08:20:49;;;;;;;20.63;6.17;;;27.00;66.90;;;;;;21012683;28;20207;-69
2022/06/19 08:30:50;;;;;;;19.40;5.57;;;27.40;64.10;;;;;;21015960;28;20238;-71
2022/06/19 08:41:04;;;;;;;13.13;5.18;;;27.80;61.30;;;;;;21009381;28;20230;-67
2022/06/19 08:51:30;;;;;;;16.85;5.30;;;28.30;59.90;;;;;;21015177;28;20234;-69
2022/06/19 09:02:02;;;;;;;17.15;5.78;;;28.60;58.40;;;;;;21024614;28;20307;-68
2022/06/19 09:12:29;;;;;;;23.80;6.18;;;29.10;57.10;;;;;;21020830;28;20241;-73
2022/06/19 09:23:06;;;;;;;14.93;5.85;;;29.50;54.70;;;;;;21003340;28;20651;-69
2022/06/19 09:33:20;;;;;;;14.13;5.85;;;29.90;53.10;;;;;;21023115;28;20264;-68
2022/06/19 09:43:28;;;;;;;16.73;6.00;;;30.20;51.50;;;;;;21013556;28;20774;-68
2022/06/19 09:53:37;;;;;;;17.55;6.15;;;30.40;50.80;;;;;;21008597;28;20234;-68
2022/06/19 10:04:09;;;;;;;11.45;5.38;;;30.50;50.60;;;;;;21001912;28;20211;-71
2022/06/19 10:14:28;;;;;;;15.70;5.40;;;30.60;50.10;;;;;;21027547;28;20237;-70
2022/06/19 10:25:06;;;;;;;14.55;5.55;;;30.80;49.60;;;;;;21028656;28;20218;-67
2022/06/19 10:35:15;;;;;;;12.40;6.05;;;30.90;49.50;;;;;;21011771;28;20227;-68
2022/06/19 10:45:46;;;;;;;21.42;5.90;;;31.10;48.90;;;;;;21008153;28;20268;-71
2022/06/19 10:56:09;;;;;;;17.05;5.55;;;31.30;48.50;;;;;;21006223;28;20234;-68
2022/06/19 11:06:34;;;;;;;13.30;5.35;;;31.40;47.60;;;;;;21004993;28;20211;-69
2022/06/19 11:16:58;;;;;;;21.52;5.95;;;31.50;47.50;;;;;;21003191;28;20285;-70
2022/06/19 11:27:01;;;;;;;14.57;5.40;;;31.50;47.20;;;;;;21003606;28;20229;-71
2022/06/19 11:37:23;;;;;;;18.30;6.30;;;31.70;47.20;;;;;;21002322;28;20238;-74
2022/06/19 11:47:38;;;;;;;16.05;5.60;;;31.90;46.40;;;;;;20997921;28;20243;-64
2022/06/19 11:57:40;;;;;;;18.77;6.05;;;32.00;46.00;;;;;;20995640;28;20230;-66
2022/06/19 12:07:42;;;;;;;18.20;6.03;;;32.20;45.90;;;;;;21000251;28;20211;-74
2022/06/19 12:17:45;;;;;;;13.30;6.25;;;32.60;45.00;;;;;;21001357;28;20249;-78
2022/06/19 12:28:05;;;;;;;15.57;5.35;;;32.80;44.30;;;;;;21006252;28;20215;-76
2022/06/19 12:38:12;;;;;;;17.35;5.40;;;33.10;43.90;;;;;;20998589;28;20246;-69
2022/06/19 12:48:32;;;;;;;25.40;5.95;;;33.10;43.10;;;;;;20997525;28;20239;-74
2022/06/19 12:59:08;;;;;;;17.20;6.40;;;33.10;43.20;;;;;;20996334;28;20211;-65
2022/06/19 13:09:20;;;;;;;12.70;6.32;;;33.00;44.00;;;;;;20995347;28;20237;-64
2022/06/19 13:19:30;;;;;;;18.70;5.40;;;33.00;43.70;;;;;;20995517;28;20211;-68
2022/06/19 13:29:46;;;;;;;16.30;6.43;;;33.00;43.80;;;;;;20995376;28;20718;-68
2022/06/19 13:40:05;;;;;;;17.33;6.18;;;33.10;44.00;;;;;;20997368;28;20571;-65
2022/06/19 13:50:29;;;;;;;12.95;6.25;;;33.10;44.10;;;;;;21011007;28;20238;-66
2022/06/19 14:00:45;;;;;;;21.40;7.03;;;33.10;44.00;;;;;;21010633;28;20576;-65
2022/06/19 14:10:57;;;;;;;13.90;5.78;;;33.10;44.30;;;;;;21010815;28;20235;-64
2022/06/19 14:21:04;;;;;;;20.50;6.15;;;33.10;44.30;;;;;;21012169;28;20260;-66
2022/06/19 14:31:09;;;;;;;17.02;6.43;;;33.30;44.30;;;;;;21008510;28;20717;-70
2022/06/19 14:41:30;;;;;;;18.80;6.07;;;33.30;43.70;;;;;;21006757;28;20235;-64
2022/06/19 14:51:46;;;;;;;16.67;6.22;;;33.30;43.80;;;;;;21005886;28;20344;-63
2022/06/19 15:01:52;;;;;;;21.00;5.95;;;33.50;43.70;;;;;;21005783;28;20211;-65
2022/06/19 15:12:08;;;;;;;16.85;6.07;;;33.60;43.00;;;;;;21004663;28;20235;-66
2022/06/19 15:22:23;;;;;;;17.60;6.20;;;33.60;42.80;;;;;;21003687;28;20549;-66
2022/06/19 15:32:57;;;;;;;18.00;5.68;;;33.70;42.70;;;;;;21003245;28;20228;-76
2022/06/19 15:43:17;;;;;;;19.02;6.00;;;33.60;41.90;;;;;;21001266;28;20231;-66
2022/06/19 15:53:23;;;;;;;17.17;5.70;;;33.60;41.40;;;;;;21001563;28;20273;-75
2022/06/19 16:03:32;;;;;;;15.45;5.05;;;34.20;40.30;;;;;;21000054;28;20218;-72
2022/06/19 16:13:36;;;;;;;19.02;6.03;;;34.60;39.80;;;;;;21000087;28;20231;-65
2022/06/19 16:23:46;;;;;;;17.95;4.90;;;34.20;39.80;;;;;;21000224;28;20215;-66
2022/06/19 16:33:49;;;;;;;13.38;4.88;;;34.60;39.40;;;;;;20997465;28;20636;-70
2022/06/19 16:44:07;;;;;;;21.10;6.05;;;34.00;39.70;;;;;;20997564;28;20238;-68
2022/06/19 16:54:12;;;;;;;26.45;6.53;;;33.60;39.80;;;;;;20999104;28;20270;-72
2022/06/19 17:04:20;;;;;;;15.40;6.32;;;33.30;40.40;;;;;;21009939;28;20203;-73
2022/06/19 17:14:42;;;;;;;20.58;6.43;;;33.20;40.90;;;;;;21006044;28;20583;-68
2022/06/19 17:24:53;;;;;;;22.27;6.10;;;33.10;41.30;;;;;;20998053;28;20619;-75
2022/06/19 17:35:01;;;;;;;23.65;6.75;;;32.90;41.50;;;;;;21016773;28;20707;-71
2022/06/19 17:45:07;;;;;;;18.63;6.25;;;32.80;41.80;;;;;;21007882;28;20253;-69
2022/06/19 17:55:44;;;;;;;24.85;5.38;;;33.30;41.60;;;;;;20995953;28;20235;-73
2022/06/19 18:05:50;;;;;;;18.27;5.60;;;32.90;42.10;;;;;;20942775;28;20210;-65
2022/06/19 18:26:21;;;;;;;21.15;6.15;;;32.30;43.50;;;;;;20911224;28;20208;-67
2022/06/19 18:36:23;;;;;;;15.07;5.70;;;31.90;44.30;;;;;;20920708;28;20293;-67
2022/06/19 18:46:26;;;;;;;14.75;6.30;;;31.70;44.90;;;;;;20922152;28;20235;-69
2022/06/19 18:56:47;;;;;;;16.88;5.90;;;31.40;45.70;;;;;;20917321;28;20231;-67
2022/06/19 19:06:51;;;;;;;18.00;6.25;;;31.10;46.80;;;;;;20920471;28;20223;-73
2022/06/19 19:16:53;;;;;;;14.77;7.60;;;30.80;47.80;;;;;;20933238;28;20227;-68
2022/06/19 19:26:57;;;;;;;23.02;6.88;;;30.60;48.90;;;;;;20970863;28;20290;-72
2022/06/19 19:37:01;;;;;;;16.98;6.43;;;30.30;49.70;;;;;;20973881;28;20226;-70
2022/06/19 19:47:04;;;;;;;14.75;6.70;;;30.10;50.90;;;;;;20999639;28;20238;-72
2022/06/19 19:57:06;;;;;;;14.23;5.88;;;29.80;54.60;;;;;;20916618;28;20286;-69
2022/06/19 20:17:29;;;;;;;17.35;5.90;;;29.00;57.70;;;;;;20914485;28;20243;-67
2022/06/19 20:27:45;;;;;;;15.80;5.40;;;28.70;58.20;;;;;;20963809;28;20249;-65
2022/06/19 20:37:49;;;;;;;13.70;5.20;;;28.40;58.90;;;;;;20995541;28;20295;-67
2022/06/19 20:47:54;;;;;;;15.77;5.60;;;28.10;59.60;;;;;;20994542;28;20649;-64
2022/06/19 20:57:57;;;;;;;13.60;5.53;;;27.90;60.00;;;;;;20994191;28;20230;-65
2022/06/19 21:08:03;;;;;;;16.80;5.43;;;27.80;60.80;;;;;;20993474;28;20210;-65
2022/06/19 21:18:05;;;;;;;18.53;5.03;;;27.70;61.30;;;;;;20994014;28;20321;-71
2022/06/19 21:28:13;;;;;;;13.40;5.27;;;27.60;62.10;;;;;;20937261;28;20254;-69
2022/06/19 21:38:17;;;;;;;13.57;5.83;;;27.40;62.40;;;;;;20909751;28;20235;-65
2022/06/19 21:48:19;;;;;;;11.40;5.00;;;27.30;62.60;;;;;;20911666;28;20240;-74
2022/06/19 21:58:22;;;;;;;10.47;5.03;;;27.20;63.20;;;;;;20910815;28;20243;-71
2022/06/19 22:08:24;;;;;;;12.83;5.63;;;27.00;63.60;;;;;;20925521;28;20208;-62
2022/06/19 22:18:26;;;;;;;10.77;4.80;;;26.90;64.00;;;;;;20926455;28;20294;-64
2022/06/19 22:28:28;;;;;;;13.63;4.97;;;26.70;64.40;;;;;;20924935;28;20203;-64
2022/06/19 22:38:31;;;;;;;14.70;4.93;;;26.50;64.70;;;;;;20929160;28;20234;-67
2022/06/19 22:48:33;;;;;;;9.67;4.67;;;26.40;65.10;;;;;;20937399;28;20240;-64
2022/06/19 23:08:55;;;;;;;9.73;4.97;;;26.20;65.90;;;;;;20922214;28;20253;-72
2022/06/19 23:18:57;;;;;;;9.77;4.63;;;26.00;66.40;;;;;;20921393;28;20244;-74
2022/06/19 23:28:59;;;;;;;12.10;5.50;;;25.90;66.90;;;;;;20920816;28;20208;-67
2022/06/19 23:39:04;;;;;;;12.03;4.83;;;25.80;67.60;;;;;;20919888;28;20228;-69
2022/06/19 23:49:13;;;;;;;13.90;5.50;;;25.70;68.50;;;;;;20919078;28;20238;-65
2022/06/19 23:59:15;;;;;;;9.10;5.27;;;25.40;69.70;;;;;;20917616;28;20294;-65
